Alexander Valley, California
Current Conditions -  °F | °C
As of 8:53 PM on Monday 20 Oct 2014 (Local Time) from KSTS Reporting Station
Clear Clear  
Wind Chill: 57°   Ceiling: Unl
Heat Index: 57°   Visibility: 10mi
Dew Point: 50°   Wind: 6mph
Humidity: 77%   Direction: 270°W
Pressure: 29.99"   Gusts: NA
Location:  38.7422°N, 122.861°W
Report Text: KSTS 210353Z AUTO 27005KT 10SM CLR 14/10 A2999 RMK AO2 SLP148 T01390100
Loading
Personal Weather Stations






























Interactive Weather Map New forecast layout! Learn more

10-Day Weather Forecast

Advertisements
Track Severe Weather on mobile